Date,TemperatureHighF,TemperatureAvgF,TemperatureLowF,DewpointHighF,DewpointAvgF,DewpointLowF,HumidityHigh,HumidityAvg,HumidityLow,PressureMaxIn,PressureMinIn,WindSpeedMaxMPH,WindSpeedAvgMPH,GustSpeedMaxMPH,PrecipitationSumIn
2013-8-1,63.9,39.7,60.5,60.0,2.2,-99.9,91,72,82,30.08,29.95,3,0,9,0.00
2013-8-2,65.2,38.8,57.4,62.3,0.9,-99.9,94,66,81,30.02,29.95,9,2,15,0.00
2013-8-3,64.4,39.7,60.9,62.6,2.7,-99.9,94,60,92,30.06,30.00,0,0,2,0.29
2013-8-4,-200.0,0.0,200.0,-99.9,-99.9,-99.9,0,0,100,30.08,29.98,0,0,1,0.00
2013-8-5,-200.0,0.0,200.0,-99.9,-99.9,-99.9,0,0,100,30.07,29.96,0,0,0,0.00
2013-8-6,68.1,27.3,58.9,60.4,-32.4,-99.9,90,35,74,30.10,30.00,5,1,20,0.09
2013-8-7,68.9,63.0,57.4,60.8,58.1,55.4,94,85,72,30.11,30.00,7,1,12,0.00
2013-8-8,68.2,59.7,56.2,61.0,56.7,53.9,95,90,77,30.01,29.97,4,1,6,0.00
2013-8-9,70.1,64.2,59.6,60.4,58.8,56.5,92,83,70,29.99,29.92,6,1,17,0.00
2013-8-10,71.6,63.9,58.3,61.7,58.8,55.9,93,84,68,30.06,29.97,7,2,14,0.00
2013-8-11,69.1,64.6,60.0,61.5,59.9,56.8,92,85,75,30.02,29.92,8,2,18,0.00
2013-8-12,70.4,65.1,61.0,61.8,60.4,58.6,92,85,74,30.00,29.91,7,1,20,0.00
2013-8-13,70.8,63.8,60.6,62.5,60.3,58.3,93,88,74,30.01,29.89,9,2,18,0.00
2013-8-14,69.9,63.4,60.2,63.5,60.8,58.7,96,91,80,29.96,29.85,8,1,17,0.00
2013-8-15,70.2,64.2,60.2,64.1,61.6,58.9,96,92,80,29.97,29.91,4,1,10,0.00
2013-8-16,69.8,63.9,61.2,64.2,61.5,60.3,97,92,81,29.99,29.93,8,1,13,0.00
2013-8-17,68.8,63.8,61.0,63.6,61.2,59.9,97,91,81,29.98,29.83,9,2,19,0.00
2013-8-18,70.5,63.4,57.5,63.5,60.5,56.1,97,91,76,29.93,29.84,6,1,13,0.00
2013-8-19,71.4,64.8,60.4,63.8,61.3,59.3,97,89,76,29.97,29.88,7,2,15,0.00
2013-8-20,69.3,64.5,60.9,62.6,60.6,58.3,95,87,77,29.97,29.87,8,3,15,0.00
2013-8-21,69.9,63.9,57.2,62.2,59.2,54.8,95,85,71,29.95,29.86,9,3,17,0.00
2013-8-22,73.5,65.7,57.7,63.8,59.9,53.7,89,82,66,29.94,29.83,12,3,18,0.00
2013-8-23,73.4,64.6,56.7,63.8,59.3,51.6,93,83,64,29.88,29.75,10,3,17,0.00
2013-8-24,70.5,63.3,55.2,63.6,59.5,52.4,96,88,77,29.89,29.79,8,1,13,0.00
2013-8-25,71.2,63.9,55.3,64.5,60.6,53.3,98,89,77,29.94,29.85,7,1,11,0.00
2013-8-26,74.2,65.0,56.8,65.4,59.8,48.3,94,84,71,29.95,29.84,9,2,17,0.00
2013-8-27,70.9,65.9,63.2,63.5,62.0,60.8,93,88,77,29.88,29.78,11,2,18,0.00
2013-8-28,72.9,65.4,61.2,63.9,61.7,58.9,95,88,73,29.91,29.80,10,2,18,0.00
2013-8-29,76.5,66.8,60.0,65.2,61.8,56.6,94,84,66,29.96,29.88,8,1,16,0.00
2013-8-30,89.0,74.0,63.1,67.2,62.7,57.2,94,72,36,29.98,29.91,3,0,6,0.00
2013-8-31,86.5,76.5,70.6,66.0,63.0,55.5,80,65,37,29.98,29.93,3,0,6,0.00